createdAt,value
2022-08-19T00:01:28.962Z,1.00
2022-08-19T00:03:58.769Z,0.90
2022-08-19T00:06:26.090Z,0.73
2022-08-19T00:08:53.415Z,0.70
2022-08-19T00:11:25.552Z,0.65
2022-08-19T00:13:53.075Z,0.95
2022-08-19T00:16:26.509Z,0.25
2022-08-19T00:18:54.800Z,1.65
2022-08-19T00:21:22.013Z,0.30
2022-08-19T00:23:49.374Z,0.55
2022-08-19T00:26:16.702Z,1.55
2022-08-19T00:28:43.935Z,0.82
2022-08-19T00:31:11.599Z,0.32
2022-08-19T00:33:39.088Z,0.65
2022-08-19T00:36:08.635Z,1.33
2022-08-19T00:38:37.685Z,1.20
2022-08-19T00:41:06.088Z,1.10
2022-08-19T00:43:33.556Z,0.50
2022-08-19T00:46:01.371Z,0.47
2022-08-19T00:48:28.724Z,1.05
2022-08-19T00:50:56.595Z,0.50
2022-08-19T00:53:25.889Z,0.63
2022-08-19T00:55:54.524Z,0.90
2022-08-19T00:58:23.829Z,1.13
2022-08-19T01:00:51.136Z,0.88
2022-08-19T01:03:19.820Z,0.70
2022-08-19T01:05:47.823Z,0.95
2022-08-19T01:08:17.341Z,1.05
2022-08-19T01:10:52.904Z,0.63
2022-08-19T01:13:22.291Z,1.33
2022-08-19T01:15:56.724Z,1.35
2022-08-19T01:18:25.405Z,0.93
2022-08-19T01:20:53.445Z,1.92
2022-08-19T01:23:20.745Z,1.30
2022-08-19T01:25:52.381Z,0.85
2022-08-19T01:28:33.858Z,1.77
2022-08-19T01:31:08.714Z,0.80
2022-08-19T01:33:35.912Z,2.03
2022-08-19T01:36:10.885Z,1.33
2022-08-19T01:38:44.103Z,1.17
2022-08-19T01:41:12.649Z,1.75
2022-08-19T01:44:03.216Z,1.33
2022-08-19T01:46:27.607Z,0.88
2022-08-19T01:48:54.783Z,1.60
2022-08-19T01:51:21.979Z,1.00
2022-08-19T01:53:49.645Z,0.50
2022-08-19T01:56:17.046Z,1.27
2022-08-19T01:58:48.653Z,1.00
2022-08-19T02:01:15.985Z,1.40
2022-08-19T02:03:43.268Z,1.98
2022-08-19T02:06:10.849Z,1.27
2022-08-19T02:08:39.127Z,0.95
2022-08-19T02:11:06.765Z,2.08
2022-08-19T02:13:35.273Z,1.45
2022-08-19T02:16:04.378Z,1.23
2022-08-19T02:18:32.892Z,0.80
2022-08-19T02:21:00.105Z,1.13
2022-08-19T02:23:28.179Z,0.47
2022-08-19T02:25:55.413Z,0.93
2022-08-19T02:28:22.590Z,0.90
2022-08-19T02:30:49.875Z,0.30
2022-08-19T02:33:17.828Z,0.80
2022-08-19T02:35:46.238Z,0.85
2022-08-19T02:38:29.089Z,0.95
2022-08-19T02:41:00.563Z,1.38
2022-08-19T02:43:28.148Z,1.35
2022-08-19T02:45:55.705Z,1.42
2022-08-19T02:48:24.733Z,1.10
2022-08-19T02:50:56.498Z,0.85
2022-08-19T02:53:25.051Z,1.23
2022-08-19T02:55:52.524Z,1.65
2022-08-19T02:58:20.702Z,2.83
2022-08-19T03:00:50.197Z,0.38
2022-08-19T03:03:17.711Z,1.40
2022-08-19T03:05:47.896Z,1.23
2022-08-19T03:08:23.628Z,2.38
2022-08-19T03:10:52.786Z,1.05
2022-08-19T03:13:19.993Z,0.82
2022-08-19T03:15:48.379Z,1.88
2022-08-19T03:18:15.901Z,1.95
2022-08-19T03:20:46.541Z,2.08
2022-08-19T03:23:13.770Z,1.65
2022-08-19T03:25:44.188Z,1.95
2022-08-19T03:28:12.949Z,3.03
2022-08-19T03:30:41.909Z,0.82
2022-08-19T03:33:18.045Z,1.02
2022-08-19T03:35:46.077Z,1.52
2022-08-19T03:38:13.461Z,1.45
2022-08-19T03:40:40.631Z,2.35
2022-08-19T03:43:07.772Z,2.22
2022-08-19T03:45:35.155Z,2.80
2022-08-19T03:48:02.287Z,1.45
2022-08-19T03:50:29.724Z,2.28
2022-08-19T03:52:57.208Z,1.67
2022-08-19T03:55:24.606Z,1.13
2022-08-19T03:57:56.196Z,1.30
2022-08-19T04:00:25.931Z,2.45
2022-08-19T04:02:56.476Z,1.52
2022-08-19T04:05:29.462Z,1.48
2022-08-19T04:08:00.046Z,4.05
2022-08-19T04:10:28.576Z,1.70
2022-08-19T04:12:55.846Z,2.05
2022-08-19T04:15:23.093Z,3.17
2022-08-19T04:17:50.266Z,1.40
2022-08-19T04:20:18.195Z,2.22
2022-08-19T04:22:45.440Z,2.35
2022-08-19T04:25:12.699Z,3.22
2022-08-19T04:27:39.968Z,2.05
2022-08-19T04:30:07.460Z,2.75
2022-08-19T04:32:36.389Z,1.55
2022-08-19T04:35:16.395Z,1.83
2022-08-19T04:37:45.864Z,2.72
2022-08-19T04:40:31.716Z,1.75
2022-08-19T04:42:59.312Z,1.13
2022-08-19T04:45:26.516Z,3.05
2022-08-19T04:47:58.975Z,3.90
2022-08-19T04:50:45.108Z,2.22
2022-08-19T04:53:12.989Z,3.92
2022-08-19T04:55:41.634Z,3.28
2022-08-19T04:58:09.060Z,1.40
2022-08-19T05:00:39.236Z,1.55
2022-08-19T05:03:07.669Z,3.45
2022-08-19T05:05:45.279Z,2.78
2022-08-19T05:08:15.324Z,1.88
2022-08-19T05:10:42.716Z,2.17
2022-08-19T05:13:11.800Z,3.28
2022-08-19T05:15:39.066Z,2.42
2022-08-19T05:18:44.897Z,1.33
2022-08-19T05:21:32.132Z,3.42
2022-08-19T05:23:59.397Z,2.47
2022-08-19T05:26:27.186Z,1.73
2022-08-19T05:28:55.018Z,2.58
2022-08-19T05:31:22.369Z,2.88
2022-08-19T05:33:51.029Z,2.10
2022-08-19T05:36:20.071Z,2.53
2022-08-19T05:38:48.559Z,1.60
2022-08-19T05:41:17.509Z,1.58
2022-08-19T05:43:44.897Z,3.50
2022-08-19T05:46:19.123Z,2.40
2022-08-19T05:48:57.550Z,2.05
2022-08-19T05:51:28.947Z,2.70
2022-08-19T05:53:56.443Z,1.60
2022-08-19T05:56:23.750Z,2.08
2022-08-19T05:58:51.032Z,1.30
2022-08-19T06:01:19.537Z,3.13
2022-08-19T06:03:46.867Z,2.25
2022-08-19T06:06:15.462Z,1.23
2022-08-19T06:08:43.963Z,2.42
2022-08-19T06:11:16.407Z,1.30
2022-08-19T06:13:43.975Z,2.95
2022-08-19T06:16:11.453Z,3.75
2022-08-19T06:18:38.780Z,2.58
2022-08-19T06:21:06.261Z,1.95
2022-08-19T06:23:35.082Z,2.50
2022-08-19T06:26:02.401Z,1.25
2022-08-19T06:28:29.952Z,1.48
2022-08-19T06:30:57.144Z,2.38
2022-08-19T06:33:24.417Z,1.35
2022-08-19T06:35:51.829Z,1.10
2022-08-19T06:38:19.030Z,1.15
2022-08-19T06:40:46.358Z,2.47
2022-08-19T06:43:14.681Z,1.30
2022-08-19T06:45:43.387Z,1.33
2022-08-19T06:48:11.730Z,2.00
2022-08-19T06:50:39.770Z,1.40
2022-08-19T06:53:08.427Z,2.97
2022-08-19T06:55:36.330Z,1.98
2022-08-19T06:58:04.937Z,3.00
2022-08-19T07:00:33.990Z,1.50
2022-08-19T07:03:04.497Z,1.23
2022-08-19T07:05:39.575Z,1.30
2022-08-19T07:08:07.255Z,1.05
2022-08-19T07:10:35.994Z,0.82
2022-08-19T07:13:03.393Z,1.48
2022-08-19T07:15:31.797Z,1.30
2022-08-19T07:17:58.997Z,0.82
2022-08-19T07:20:28.629Z,1.30
2022-08-19T07:22:56.898Z,1.73
2022-08-19T07:25:32.563Z,0.57
2022-08-19T07:28:01.622Z,0.77
2022-08-19T07:30:29.085Z,0.98
2022-08-19T07:32:57.186Z,0.50
2022-08-19T07:35:25.073Z,1.33
2022-08-19T07:37:54.178Z,0.65
2022-08-19T07:40:21.595Z,0.93
2022-08-19T07:42:48.910Z,0.73
2022-08-19T07:45:16.993Z,1.83
2022-08-19T07:47:49.019Z,1.35
2022-08-19T07:50:26.244Z,1.13
2022-08-19T07:52:53.856Z,1.63
2022-08-19T07:55:41.685Z,2.63
2022-08-19T07:58:11.676Z,2.05
2022-08-19T08:00:39.215Z,1.48
2022-08-19T08:03:06.482Z,2.85
2022-08-19T08:05:52.491Z,2.13
2022-08-19T08:08:43.838Z,2.03
2022-08-19T08:11:15.466Z,2.10
2022-08-19T08:13:43.513Z,1.65
2022-08-19T08:16:13.968Z,3.58
2022-08-19T08:18:50.299Z,2.28
2022-08-19T08:21:17.982Z,1.98
2022-08-19T08:23:45.506Z,1.45
2022-08-19T08:26:14.022Z,1.85
2022-08-19T08:28:43.277Z,3.13
2022-08-19T08:31:15.821Z,1.55
2022-08-19T08:33:43.346Z,2.53
2022-08-19T08:36:10.592Z,1.80
2022-08-19T08:38:40.931Z,1.27
2022-08-19T08:41:28.791Z,1.25
2022-08-19T08:43:58.341Z,2.20
2022-08-19T08:46:48.365Z,2.15
2022-08-19T08:49:25.438Z,3.13
2022-08-19T08:52:12.892Z,1.45
2022-08-19T08:54:54.756Z,1.73
2022-08-19T08:57:36.918Z,2.20
2022-08-19T09:00:15.396Z,1.88
2022-08-19T09:02:43.392Z,1.67
2022-08-19T09:05:16.587Z,3.25
2022-08-19T09:08:02.758Z,2.00
2022-08-19T09:10:31.114Z,1.02
2022-08-19T09:13:09.374Z,2.33
2022-08-19T09:15:40.715Z,3.20
2022-08-19T09:18:15.259Z,1.35
2022-08-19T09:20:48.526Z,0.77
2022-08-19T09:23:15.984Z,1.23
2022-08-19T09:25:43.332Z,1.17
2022-08-19T09:28:22.469Z,0.95
2022-08-19T09:30:54.119Z,1.52
2022-08-19T09:33:22.009Z,1.13
2022-08-19T09:35:53.306Z,1.75
2022-08-19T09:38:21.566Z,2.15
2022-08-19T09:40:50.189Z,1.23
2022-08-19T09:43:33.269Z,0.68
2022-08-19T09:46:07.692Z,2.22
2022-08-19T09:48:35.170Z,1.55
2022-08-19T09:51:06.620Z,0.40
2022-08-19T09:53:34.265Z,1.15
2022-08-19T09:56:01.655Z,0.65
2022-08-19T09:58:31.568Z,1.80
2022-08-19T10:01:00.050Z,2.10
2022-08-19T10:03:30.119Z,0.75
2022-08-19T10:05:58.614Z,2.40
2022-08-19T10:08:30.762Z,1.20
2022-08-19T10:10:59.002Z,0.40
2022-08-19T10:13:27.732Z,1.35
2022-08-19T10:15:57.186Z,1.05
2022-08-19T10:18:25.405Z,0.82
2022-08-19T10:20:54.602Z,1.52
2022-08-19T10:23:23.165Z,1.25
2022-08-19T10:25:50.826Z,1.83
2022-08-19T10:28:19.226Z,1.85
2022-08-19T10:30:47.562Z,2.03
2022-08-19T10:33:16.123Z,0.85
2022-08-19T10:36:05.876Z,0.95
2022-08-19T10:38:33.206Z,0.93
2022-08-19T10:41:08.154Z,1.60
2022-08-19T10:43:39.270Z,1.58
2022-08-19T10:46:14.102Z,1.40
2022-08-19T10:48:44.259Z,1.33
2022-08-19T10:51:30.722Z,1.55
2022-08-19T10:53:59.035Z,2.83
2022-08-19T10:56:45.390Z,0.85
2022-08-19T10:59:14.614Z,0.77
2022-08-19T11:01:42.482Z,1.35
2022-08-19T11:04:12.431Z,1.40
2022-08-19T11:06:39.730Z,1.27
2022-08-19T11:09:07.010Z,2.08
2022-08-19T11:11:38.405Z,2.30
2022-08-19T11:14:07.017Z,1.67
2022-08-19T11:16:34.263Z,2.45
2022-08-19T11:19:02.691Z,1.67
2022-08-19T11:21:35.495Z,0.80
2022-08-19T11:24:04.627Z,1.10
2022-08-19T11:26:32.276Z,1.33
2022-08-19T11:29:00.706Z,1.17
2022-08-19T11:31:29.878Z,1.05
2022-08-19T11:34:00.826Z,0.77
2022-08-19T11:36:28.248Z,4.15
2022-08-19T11:38:55.989Z,7.35
2022-08-19T11:41:24.382Z,1.20
2022-08-19T11:43:53.852Z,1.77
2022-08-19T11:46:21.322Z,2.55
2022-08-19T11:48:50.713Z,1.60
2022-08-19T11:51:20.193Z,1.17
2022-08-19T11:53:47.750Z,1.15
2022-08-19T11:56:15.001Z,0.85
2022-08-19T11:58:45.254Z,1.88
2022-08-19T12:01:14.745Z,0.50
2022-08-19T12:03:42.043Z,0.50
2022-08-19T12:06:10.676Z,0.40
2022-08-19T12:08:38.223Z,0.35
2022-08-19T12:11:06.668Z,0.50
2022-08-19T12:13:33.869Z,1.20
2022-08-19T12:16:01.542Z,0.40
2022-08-19T12:18:28.883Z,1.48
2022-08-19T12:20:56.063Z,1.45
2022-08-19T12:23:24.241Z,0.30
2022-08-19T12:25:52.760Z,0.40
2022-08-19T12:28:24.242Z,0.85
2022-08-19T12:30:52.422Z,0.30
2022-08-19T12:33:20.746Z,0.75
2022-08-19T12:35:48.052Z,0.73
2022-08-19T12:38:15.763Z,0.77
2022-08-19T12:40:42.988Z,0.20
2022-08-19T12:43:10.846Z,0.52
2022-08-19T12:45:38.729Z,0.63
2022-08-19T12:48:34.408Z,0.55
2022-08-19T12:50:55.737Z,0.68
2022-08-19T12:53:22.939Z,0.30
2022-08-19T12:55:57.740Z,0.43
2022-08-19T12:58:27.359Z,0.40
2022-08-19T13:00:54.923Z,1.17
2022-08-19T13:03:28.522Z,0.82
2022-08-19T13:05:55.692Z,0.88
2022-08-19T13:08:22.892Z,0.45
2022-08-19T13:10:52.333Z,0.60
2022-08-19T13:13:19.772Z,0.65
2022-08-19T13:15:48.459Z,0.43
2022-08-19T13:18:16.143Z,0.70
2022-08-19T13:20:43.579Z,0.70
2022-08-19T13:23:20.449Z,1.15
2022-08-19T13:25:56.824Z,0.80
2022-08-19T13:28:29.217Z,0.60
2022-08-19T13:31:15.810Z,1.02
2022-08-19T13:33:43.190Z,0.28
2022-08-19T13:36:10.551Z,1.10
2022-08-19T13:38:38.852Z,0.68
2022-08-19T13:41:10.985Z,0.85
2022-08-19T13:43:40.010Z,1.67
2022-08-19T13:46:11.310Z,0.43
2022-08-19T13:48:38.512Z,0.30
2022-08-19T13:51:06.685Z,0.22
2022-08-19T13:53:34.120Z,0.60
2022-08-19T13:56:01.339Z,0.30
2022-08-19T13:58:28.683Z,0.15
2022-08-19T14:00:56.071Z,0.15
2022-08-19T14:03:23.283Z,1.70
2022-08-19T14:05:50.702Z,0.30
2022-08-19T14:08:18.150Z,0.17
2022-08-19T14:10:46.280Z,0.70
2022-08-19T14:13:15.989Z,0.90
2022-08-19T14:15:43.355Z,0.25
2022-08-19T14:18:10.652Z,0.40
2022-08-19T14:20:38.060Z,0.35
2022-08-19T14:23:08.223Z,0.32
2022-08-19T14:25:35.837Z,0.10
2022-08-19T14:28:03.195Z,0.45
2022-08-19T14:30:31.823Z,0.30
2022-08-19T14:33:00.585Z,0.65
2022-08-19T14:35:28.859Z,0.43
2022-08-19T14:37:57.047Z,0.20
2022-08-19T14:40:26.848Z,0.35
2022-08-19T14:43:00.525Z,0.55
2022-08-19T14:45:31.300Z,0.52
2022-08-19T14:48:01.290Z,0.50
2022-08-19T14:50:29.378Z,0.60
2022-08-19T14:53:00.937Z,0.50
2022-08-19T14:55:28.494Z,0.47
2022-08-19T14:57:55.750Z,0.38
2022-08-19T15:00:25.665Z,0.47
2022-08-19T15:02:55.585Z,0.85
2022-08-19T15:05:23.349Z,0.10
2022-08-19T15:07:50.755Z,0.10
2022-08-19T15:10:18.078Z,0.17
2022-08-19T15:12:48.666Z,0.17
2022-08-19T15:15:20.798Z,0.20
2022-08-19T15:17:48.210Z,0.17
2022-08-19T15:20:18.665Z,0.17
2022-08-19T15:22:47.496Z,0.15
2022-08-19T15:25:16.401Z,0.10
2022-08-19T15:27:44.198Z,0.22
2022-08-19T15:30:12.615Z,0.98
2022-08-19T15:32:40.248Z,0.10
2022-08-19T15:35:08.491Z,0.85
2022-08-19T15:37:37.256Z,0.47
2022-08-19T15:40:05.384Z,0.60
2022-08-19T15:42:32.714Z,1.08
2022-08-19T15:45:01.073Z,0.60
2022-08-19T15:47:34.417Z,0.20
2022-08-19T15:50:05.736Z,0.25
2022-08-19T15:52:32.897Z,0.63
2022-08-19T15:55:01.396Z,0.28
2022-08-19T15:57:28.843Z,0.10
2022-08-19T16:00:14.637Z,0.20
2022-08-19T16:03:03.446Z,0.08
2022-08-19T16:05:50.081Z,0.35
2022-08-19T16:08:17.635Z,0.32
2022-08-19T16:10:44.804Z,0.28
2022-08-19T16:13:12.491Z,0.40
2022-08-19T16:15:42.164Z,0.47
2022-08-19T16:18:09.392Z,0.00
2022-08-19T16:20:36.565Z,0.00
2022-08-19T16:23:05.371Z,0.80
2022-08-19T16:25:32.682Z,0.10
2022-08-19T16:28:07.290Z,0.10
2022-08-19T16:30:36.277Z,0.20
2022-08-19T16:33:03.451Z,0.00
2022-08-19T16:35:30.747Z,1.70
2022-08-19T16:37:58.191Z,0.00
2022-08-19T16:40:25.442Z,0.00
2022-08-19T16:42:53.657Z,0.00
2022-08-19T16:45:22.113Z,0.73
2022-08-19T16:47:49.295Z,0.28
2022-08-19T16:50:22.178Z,0.00
2022-08-19T16:52:58.503Z,0.00
2022-08-19T16:55:29.445Z,0.00
2022-08-19T16:57:56.849Z,0.00
2022-08-19T17:00:24.284Z,0.00
2022-08-19T17:02:52.683Z,0.00
2022-08-19T17:05:19.943Z,0.00
2022-08-19T17:07:47.472Z,0.10
2022-08-19T17:10:15.906Z,0.30
2022-08-19T17:12:43.395Z,0.03
2022-08-19T17:15:10.874Z,0.25
2022-08-19T17:17:38.124Z,0.55
2022-08-19T17:20:06.561Z,0.00
2022-08-19T17:22:35.919Z,0.20
2022-08-19T17:25:03.526Z,0.00
2022-08-19T17:27:32.210Z,0.00
2022-08-19T17:30:00.353Z,0.10
2022-08-19T17:32:28.024Z,0.00
2022-08-19T17:34:55.242Z,0.10
2022-08-19T17:37:22.990Z,0.55
2022-08-19T17:39:50.409Z,0.00
2022-08-19T17:42:17.612Z,0.00
2022-08-19T17:44:50.444Z,0.08
2022-08-19T17:47:18.298Z,0.30
2022-08-19T17:49:45.535Z,0.00
2022-08-19T17:52:12.955Z,0.00
2022-08-19T17:54:40.248Z,0.10
2022-08-19T17:57:08.514Z,0.00
2022-08-19T17:59:37.627Z,0.75
2022-08-19T18:02:05.684Z,0.00
2022-08-19T18:04:33.647Z,0.00
2022-08-19T18:07:04.425Z,0.15
2022-08-19T18:09:42.123Z,0.00
2022-08-19T18:12:10.767Z,0.73
2022-08-19T18:14:39.339Z,0.00
2022-08-19T18:17:09.614Z,0.20
2022-08-19T18:19:42.701Z,0.20
2022-08-19T18:22:22.587Z,0.03
2022-08-19T18:24:50.093Z,0.00
2022-08-19T18:27:17.422Z,0.00
2022-08-19T18:29:45.195Z,0.10
2022-08-19T18:32:13.200Z,0.57
2022-08-19T18:34:41.520Z,0.00
2022-08-19T18:37:08.798Z,0.20
2022-08-19T18:39:56.071Z,0.40
2022-08-19T18:42:42.318Z,0.10
2022-08-19T18:45:29.120Z,0.10
2022-08-19T18:48:27.081Z,0.00
2022-08-19T18:50:56.200Z,0.30
2022-08-19T18:53:23.429Z,0.00
2022-08-19T18:55:53.839Z,0.00
2022-08-19T18:58:26.142Z,0.10
2022-08-19T19:00:57.017Z,0.20
2022-08-19T19:03:25.393Z,0.00
2022-08-19T19:05:52.849Z,0.52
2022-08-19T19:08:20.060Z,0.00
2022-08-19T19:10:55.097Z,0.05
2022-08-19T19:13:22.381Z,0.10
2022-08-19T19:15:49.578Z,0.00
2022-08-19T19:18:17.385Z,0.60
2022-08-19T19:20:44.625Z,0.10
2022-08-19T19:23:11.788Z,0.40
2022-08-19T19:25:50.320Z,0.40
2022-08-19T19:28:25.324Z,0.00
2022-08-19T19:30:53.768Z,0.10
2022-08-19T19:33:21.415Z,0.10
2022-08-19T19:35:48.642Z,0.00
2022-08-19T19:38:16.526Z,0.20
2022-08-19T19:40:43.845Z,0.20
2022-08-19T19:43:11.023Z,0.30
2022-08-19T19:45:38.504Z,1.00
2022-08-19T19:48:06.243Z,0.40
2022-08-19T19:50:33.686Z,0.80
2022-08-19T19:53:01.076Z,0.50
2022-08-19T19:55:29.023Z,0.35
2022-08-19T19:57:57.937Z,0.55
2022-08-19T20:00:25.722Z,0.55
2022-08-19T20:02:55.989Z,0.30
2022-08-19T20:05:24.031Z,0.22
2022-08-19T20:08:11.288Z,0.22
2022-08-19T20:10:38.965Z,0.10
2022-08-19T20:13:07.238Z,0.20
2022-08-19T20:15:37.947Z,0.00
2022-08-19T20:18:07.768Z,1.00
2022-08-19T20:20:35.766Z,0.50
2022-08-19T20:23:02.937Z,0.20
2022-08-19T20:25:32.310Z,0.05
2022-08-19T20:28:01.249Z,0.20
2022-08-19T20:30:28.854Z,0.28
2022-08-19T20:32:59.804Z,0.32
2022-08-19T20:35:27.167Z,0.32
2022-08-19T20:37:58.269Z,0.20
2022-08-19T20:40:26.159Z,0.00
2022-08-19T20:42:54.385Z,0.25
2022-08-19T20:45:33.312Z,0.00
2022-08-19T20:48:02.827Z,0.63
2022-08-19T20:50:31.144Z,0.13
2022-08-19T20:52:58.734Z,0.20
2022-08-19T20:55:27.372Z,0.63
2022-08-19T20:57:54.993Z,0.40
2022-08-19T21:00:22.404Z,0.10
2022-08-19T21:02:49.817Z,0.00
2022-08-19T21:05:17.115Z,0.30
2022-08-19T21:07:44.408Z,0.00
2022-08-19T21:10:11.977Z,0.15
2022-08-19T21:12:39.506Z,0.20
2022-08-19T21:15:07.319Z,0.00
2022-08-19T21:17:34.815Z,0.30
2022-08-19T21:20:02.121Z,0.10
2022-08-19T21:22:29.289Z,0.30
2022-08-19T21:24:56.899Z,0.80
2022-08-19T21:27:24.246Z,0.10
2022-08-19T21:29:51.864Z,0.15
2022-08-19T21:32:20.247Z,0.20
2022-08-19T21:34:47.542Z,0.00
2022-08-19T21:37:19.002Z,0.17
2022-08-19T21:39:53.598Z,0.00
2022-08-19T21:42:21.292Z,0.05
2022-08-19T21:44:48.626Z,0.17
2022-08-19T21:47:16.221Z,0.98
2022-08-19T21:49:43.410Z,0.00
2022-08-19T21:52:10.604Z,0.08
2022-08-19T21:54:38.825Z,0.40
2022-08-19T21:57:10.162Z,0.35
2022-08-19T21:59:43.489Z,0.40
2022-08-19T22:02:19.935Z,0.17
2022-08-19T22:04:48.615Z,0.88
2022-08-19T22:07:16.145Z,0.30
2022-08-19T22:09:44.234Z,0.25
2022-08-19T22:12:13.025Z,0.00
2022-08-19T22:14:40.498Z,1.02
2022-08-19T22:17:07.726Z,0.10
2022-08-19T22:19:35.224Z,0.28
2022-08-19T22:22:02.471Z,1.27
2022-08-19T22:24:29.598Z,0.85
2022-08-19T22:26:56.932Z,0.20
2022-08-19T22:29:31.856Z,0.68
2022-08-19T22:32:27.121Z,0.65
2022-08-19T22:34:49.237Z,0.10
2022-08-19T22:37:16.595Z,0.00
2022-08-19T22:39:43.797Z,0.15
2022-08-19T22:42:11.501Z,0.65
2022-08-19T22:44:38.945Z,0.40
2022-08-19T22:47:06.173Z,0.20
2022-08-19T22:49:33.583Z,0.32
2022-08-19T22:52:18.255Z,1.55
2022-08-19T22:54:50.081Z,0.20
2022-08-19T22:57:19.626Z,0.10
2022-08-19T22:59:51.254Z,0.65
2022-08-19T23:02:23.489Z,0.15
2022-08-19T23:04:51.173Z,0.38
2022-08-19T23:07:19.326Z,0.20
2022-08-19T23:09:51.083Z,0.50
2022-08-19T23:12:30.566Z,0.25
2022-08-19T23:15:02.007Z,0.45
2022-08-19T23:17:29.238Z,0.00
2022-08-19T23:19:56.517Z,0.60
2022-08-19T23:22:25.000Z,0.28
2022-08-19T23:24:55.977Z,0.28
2022-08-19T23:27:42.434Z,0.03
2022-08-19T23:30:28.195Z,0.10
2022-08-19T23:33:01.056Z,0.20
2022-08-19T23:35:32.677Z,0.50
2022-08-19T23:38:01.245Z,0.82
2022-08-19T23:40:29.044Z,0.52
2022-08-19T23:42:56.339Z,0.20
2022-08-19T23:45:25.607Z,0.30
2022-08-19T23:47:53.554Z,0.60
2022-08-19T23:50:21.483Z,0.10
2022-08-19T23:52:50.627Z,0.05
2022-08-19T23:55:18.854Z,1.35
2022-08-19T23:57:46.064Z,0.45
